Time;durP1;ratioP1;P1;durP2;ratioP2;P2;SDS_P1;SDS_P2;PMS_P1;PMS_P2;Temp;Humidity;BMP_temperature;BMP_pressure;BME280_temperature;BME280_humidity;BME280_pressure;Samples;Min_cycle;Max_cycle;Signal;HPM_P1;HPM_P2
2024/02/03 00:09:08;;;;;;;8.50;2.00;;;;;;;2.92;64.40;98619.09;102719;1291;599347;-25
2024/02/03 00:11:36;;;;;;;4.30;2.20;;;;;;;2.66;65.34;98629.58;104853;1266;61190;-25
2024/02/03 00:21:41;;;;;;;4.70;1.60;;;;;;;3.24;64.53;98598.56;102687;1295;600138;-25
2024/02/03 00:31:46;;;;;;;5.60;2.30;;;;;;;2.69;65.80;98562.21;102711;1293;599445;-26
2024/02/03 00:34:14;;;;;;;7.30;2.80;;;;;;;2.75;65.41;98556.73;104784;1268;61129;-27
2024/02/03 00:42:54;;;;;;;2.80;1.90;;;;;;;3.41;64.10;98540.04;102737;1293;600826;-25
2024/02/03 00:45:22;;;;;;;10.80;2.80;;;;;;;3.39;63.86;98532.82;105493;1263;61263;-26
2024/02/03 00:47:50;;;;;;;7.70;2.90;;;;;;;3.41;63.45;98535.08;105498;1263;61097;-28
2024/02/03 00:50:18;;;;;;;9.60;2.90;;;;;;;3.14;64.20;98526.91;105348;1258;70935;-28
2024/02/03 00:52:45;;;;;;;8.60;3.00;;;;;;;2.97;64.76;98528.42;105496;1257;74326;-28
2024/02/03 00:55:13;;;;;;;10.40;2.90;;;;;;;2.82;65.20;98525.47;105455;1260;72667;-28
2024/02/03 00:57:42;;;;;;;7.20;3.10;;;;;;;2.62;65.92;98524.08;105479;1260;190956;-28
2024/02/03 01:00:12;;;;;;;5.00;1.50;;;;;;;2.78;66.08;98524.17;105582;1259;61172;-28
2024/02/03 01:02:41;;;;;;;7.50;1.90;;;;;;;3.60;64.11;98521.25;105388;1264;72194;-28
2024/02/03 01:05:09;;;;;;;5.80;2.10;;;;;;;3.63;63.36;98503.75;105192;1263;74746;-28
2024/02/03 01:07:37;;;;;;;7.10;2.20;;;;;;;3.68;62.89;98510.46;105566;1259;71426;-28
2024/02/03 01:17:44;;;;;;;3.70;1.90;;;;;;;3.04;64.80;98484.62;102751;1290;599549;-25
2024/02/03 01:27:48;;;;;;;8.70;2.00;;;;;;;3.71;63.67;98463.92;102936;1288;599461;-27
2024/02/03 01:30:16;;;;;;;5.30;2.30;;;;;;;3.95;61.54;98457.11;105052;1266;61197;-28
2024/02/03 01:32:44;;;;;;;4.20;2.50;;;;;;;3.86;61.58;98454.77;105138;1266;61179;-28
2024/02/03 01:35:12;;;;;;;6.20;2.70;;;;;;;3.62;61.76;98439.75;104817;1267;72238;-28
2024/02/03 01:37:40;;;;;;;3.50;2.00;;;;;;;3.58;61.75;98440.33;104849;1267;74281;-28
2024/02/03 01:40:08;;;;;;;3.80;2.00;;;;;;;3.29;62.37;98424.94;104827;1267;71403;-28
2024/02/03 01:42:36;;;;;;;3.50;1.90;;;;;;;3.24;62.57;98420.30;104803;1270;200704;-28
2024/02/03 01:45:05;;;;;;;6.70;2.70;;;;;;;3.10;63.14;98415.61;105238;1268;61186;-27
2024/02/03 01:47:33;;;;;;;9.60;2.70;;;;;;;2.90;63.61;98411.23;105136;1260;71012;-27
2024/02/03 01:50:01;;;;;;;8.90;2.80;;;;;;;3.15;63.38;98416.41;105233;1267;74856;-28
2024/02/03 01:52:29;;;;;;;6.20;1.70;;;;;;;3.87;61.47;98420.39;105614;1254;71878;-28
2024/02/03 01:54:57;;;;;;;10.80;2.70;;;;;;;4.00;60.50;98416.05;105339;1255;61069;-28
2024/02/03 01:57:25;;;;;;;6.40;1.90;;;;;;;3.95;60.37;98411.77;105635;1259;61057;-28
2024/02/03 01:59:53;;;;;;;7.80;2.40;;;;;;;3.63;60.88;98407.59;105604;1255;73023;-28
2024/02/03 02:02:20;;;;;;;7.30;3.00;;;;;;;3.48;61.45;98410.61;105680;1254;74254;-28
2024/02/03 02:04:48;;;;;;;4.60;2.20;;;;;;;3.40;61.79;98406.63;105604;1257;72638;-28
2024/02/03 02:07:18;;;;;;;5.10;2.40;;;;;;;3.31;62.02;98401.17;105642;1257;61133;-28
2024/02/03 02:09:48;;;;;;;5.30;2.10;;;;;;;3.09;62.96;98395.64;105350;1262;61167;-27
2024/02/03 02:12:16;;;;;;;4.20;1.90;;;;;;;3.02;63.60;98395.73;105697;1254;73106;-28
2024/02/03 02:14:44;;;;;;;2.30;1.20;;;;;;;3.10;63.58;98395.79;105615;1254;74294;-28
2024/02/03 02:17:12;;;;;;;2.90;2.00;;;;;;;3.80;61.98;98385.08;105624;1254;71721;-28
2024/02/03 02:19:40;;;;;;;7.70;2.50;;;;;;;4.04;61.08;98374.77;105592;1254;61144;-28
2024/02/03 02:22:08;;;;;;;5.90;2.50;;;;;;;3.78;62.04;98367.82;105588;1260;61186;-24
2024/02/03 02:24:35;;;;;;;10.40;2.60;;;;;;;3.49;63.48;98354.29;105595;1262;71767;-26
2024/02/03 02:27:04;;;;;;;8.00;2.00;;;;;;;3.48;64.18;98353.65;105637;1255;74311;-27
2024/02/03 02:29:32;;;;;;;4.80;2.30;;;;;;;3.14;65.95;98352.27;105565;1260;72708;-28
2024/02/03 02:39:25;;;;;;;4.50;1.80;;;;;;;3.59;66.82;98332.48;103075;1289;600130;-26
2024/02/03 02:41:53;;;;;;;9.00;2.40;;;;;;;3.02;69.00;98325.24;105055;1266;61209;-25
2024/02/03 02:44:21;;;;;;;3.20;1.80;;;;;;;3.02;69.71;98318.58;104942;1266;61150;-25
2024/02/03 02:46:49;;;;;;;7.70;3.10;;;;;;;2.96;69.92;98312.91;105030;1269;72218;-25
2024/02/03 02:49:16;;;;;;;10.90;2.00;;;;;;;3.30;70.15;98304.65;104840;1266;73034;-26
2024/02/03 02:51:44;;;;;;;9.00;3.90;;;;;;;2.84;72.01;98292.73;104806;1270;72608;-26
2024/02/03 02:54:12;;;;;;;6.50;2.60;;;;;;;2.42;74.60;98292.38;104890;1269;215720;-26
2024/02/03 03:04:17;;;;;;;3.60;1.80;;;;;;;2.05;78.11;98271.06;102927;1288;599812;-23
2024/02/03 05:24:08;;;;;;;6.30;3.60;;;;;;;2.28;80.50;97990.20;102791;1294;600156;-22
2024/02/03 05:26:36;;;;;;;6.10;4.20;;;;;;;2.09;81.34;97986.95;105138;1270;61250;-26
2024/02/03 05:29:03;;;;;;;5.40;2.80;;;;;;;2.16;81.86;97987.70;105144;1263;61362;-25
2024/02/03 05:31:31;;;;;;;4.70;3.10;;;;;;;2.62;80.27;97991.96;105232;1261;72199;-25
2024/02/03 05:33:59;;;;;;;5.60;3.30;;;;;;;2.59;79.87;97991.79;105576;1260;73259;-26
2024/02/03 05:36:27;;;;;;;4.30;3.20;;;;;;;2.40;80.59;97995.25;105575;1258;71868;-26
2024/02/03 05:46:34;;;;;;;5.70;2.70;;;;;;;2.71;80.03;97988.48;102758;1295;599349;-23
2024/02/03 05:49:02;;;;;;;5.40;3.50;;;;;;;2.60;80.08;97984.73;105058;1268;61126;-25
2024/02/03 05:51:30;;;;;;;8.80;4.00;;;;;;;2.29;81.48;97975.60;105042;1264;61039;-25
2024/02/03 05:53:58;;;;;;;4.10;2.30;;;;;;;2.28;82.32;97981.30;104846;1272;72159;-26
2024/02/03 06:04:10;;;;;;;4.60;3.10;;;;;;;2.30;82.83;97969.31;102754;1294;600499;-24
2024/02/03 06:13:23;;;;;;;5.10;3.20;;;;;;;2.83;81.21;97959.55;102746;1290;599953;-25
2024/02/03 06:15:52;;;;;;;2.90;2.00;;;;;;;2.59;82.04;97955.84;105030;1266;61082;-26
2024/02/03 06:25:55;;;;;;;4.20;2.90;;;;;;;2.91;81.64;97937.06;102650;1292;600235;-23
2024/02/03 06:28:24;;;;;;;2.60;2.10;;;;;;;2.78;81.75;97935.55;104831;1267;61117;-25
2024/02/03 06:30:52;;;;;;;5.20;2.70;;;;;;;2.65;82.20;97936.90;104806;1266;61177;-26
2024/02/03 06:40:57;;;;;;;2.20;1.60;;;;;;;3.15;80.75;97929.77;102736;1294;600557;-25
2024/02/03 06:43:25;;;;;;;4.50;2.30;;;;;;;2.84;81.74;97933.44;104840;1267;61165;-26
2024/02/03 06:45:53;;;;;;;3.40;2.20;;;;;;;2.61;83.19;97927.41;104838;1269;61260;-26
2024/02/03 06:48:21;;;;;;;3.50;2.20;;;;;;;3.10;81.94;97926.57;104842;1265;70972;-26
2024/02/03 06:50:49;;;;;;;7.70;2.20;;;;;;;3.23;81.04;97914.50;104847;1267;74334;-26
2024/02/03 06:53:17;;;;;;;6.40;2.40;;;;;;;3.13;81.31;97917.77;104868;1272;71792;-26
2024/02/03 06:55:45;;;;;;;3.60;2.30;;;;;;;2.93;82.19;97915.00;104858;1264;204588;-25
2024/02/03 06:58:13;;;;;;;4.00;2.50;;;;;;;2.81;83.37;97904.48;105125;1264;61109;-27
2024/02/03 07:08:21;;;;;;;3.00;1.90;;;;;;;3.06;82.68;97917.89;102738;1292;599284;-24
2024/02/03 07:10:49;;;;;;;3.50;2.30;;;;;;;2.90;83.51;97908.69;104860;1263;61114;-26
2024/02/03 07:19:53;;;;;;;1.30;1.10;;;;;;;3.47;81.39;97899.40;102654;1292;600048;-26
2024/02/03 07:30:01;;;;;;;2.70;1.50;;;;;;;3.76;81.48;97899.80;102719;1292;598731;-24
2024/02/03 07:32:29;;;;;;;3.40;2.10;;;;;;;3.85;80.88;97905.03;104780;1268;61285;-25
2024/02/03 07:34:57;;;;;;;3.70;2.20;;;;;;;3.68;81.30;97904.51;104778;1274;61193;-26
2024/02/03 07:37:25;;;;;;;2.80;2.20;;;;;;;3.47;82.17;97903.54;105395;1263;72214;-26
2024/02/03 07:39:53;;;;;;;2.20;1.70;;;;;;;3.56;83.04;97894.87;105190;1266;73205;-27
2024/02/03 07:42:21;;;;;;;2.60;1.70;;;;;;;3.94;81.73;97895.41;105199;1264;71687;-26
2024/02/03 07:44:49;;;;;;;2.10;1.70;;;;;;;4.01;81.42;97889.75;105393;1258;165364;-26
2024/02/03 07:55:03;;;;;;;1.80;1.40;;;;;;;4.14;82.45;97880.26;102753;1290;599434;-25
2024/02/03 07:57:31;;;;;;;1.70;1.30;;;;;;;4.30;81.64;97866.02;104873;1266;61142;-24
2024/02/03 07:59:59;;;;;;;1.90;1.40;;;;;;;4.24;81.93;97868.88;104880;1266;61052;-25
2024/02/03 08:02:27;;;;;;;2.40;1.90;;;;;;;4.07;82.63;97864.27;104870;1265;71032;-25
2024/02/03 08:04:55;;;;;;;2.30;1.40;;;;;;;3.90;83.83;97860.34;104922;1270;74305;-25
2024/02/03 08:07:22;;;;;;;1.80;1.20;;;;;;;4.12;83.92;97853.73;104822;1266;73595;-25
2024/02/03 08:09:50;;;;;;;4.40;1.50;;;;;;;4.52;82.07;97850.80;104744;1266;193047;-25
2024/02/03 08:12:18;;;;;;;2.70;1.30;;;;;;;4.30;83.08;97844.85;104834;1269;61203;-25
2024/02/03 08:22:23;;;;;;;2.80;1.20;;;;;;;4.64;83.87;97846.45;102665;1291;599448;-23
2024/02/03 08:24:52;;;;;;;1.10;0.80;;;;;;;4.71;83.20;97847.65;104873;1267;61054;-23
2024/02/03 08:27:20;;;;;;;1.10;0.90;;;;;;;4.57;83.86;97845.08;105376;1259;61524;-26
2024/02/03 08:29:47;;;;;;;5.20;1.10;;;;;;;4.39;85.19;97844.75;105257;1265;72181;-26
2024/02/03 08:32:15;;;;;;;2.00;1.20;;;;;;;4.55;85.17;97844.05;105298;1260;73365;-26
2024/02/03 08:34:44;;;;;;;1.30;1.00;;;;;;;4.82;83.97;97842.55;105227;1263;72842;-26
2024/02/03 08:37:14;;;;;;;1.50;1.10;;;;;;;4.88;83.69;97838.81;105265;1258;201042;-26
2024/02/03 08:39:42;;;;;;;2.20;1.50;;;;;;;4.69;84.83;97826.54;105364;1259;61100;-26
2024/02/03 08:42:15;;;;;;;2.20;1.50;;;;;;;4.53;85.73;97831.66;105409;1258;72280;-26
2024/02/03 08:44:43;;;;;;;2.00;1.50;;;;;;;4.74;85.29;97816.11;105433;1257;74415;-27
2024/02/03 08:47:11;;;;;;;2.70;2.10;;;;;;;4.95;84.82;97820.02;105284;1262;72648;-26
2024/02/03 08:49:49;;;;;;;2.30;1.30;;;;;;;4.83;85.56;97813.43;105388;1264;61199;-26
2024/02/03 08:52:17;;;;;;;1.30;1.20;;;;;;;4.78;86.24;97805.52;105230;1264;61179;-26
2024/02/03 08:54:45;;;;;;;1.40;1.30;;;;;;;5.04;85.52;97805.91;105436;1264;73000;-26
2024/02/03 08:57:14;;;;;;;1.60;1.50;;;;;;;5.15;85.19;97804.50;105395;1263;73344;-26
2024/02/03 08:59:42;;;;;;;2.50;1.80;;;;;;;5.05;86.12;97801.75;105367;1260;72704;-26
2024/02/03 09:02:09;;;;;;;2.20;1.30;;;;;;;4.93;86.59;97791.11;105334;1265;61135;-26
2024/02/03 09:04:37;;;;;;;1.80;1.50;;;;;;;5.13;86.37;97793.88;105372;1259;61134;-26
2024/02/03 09:14:41;;;;;;;1.40;1.30;;;;;;;5.39;85.84;97811.30;103257;1288;600218;-25
2024/02/03 09:24:51;;;;;;;2.60;1.70;;;;;;;5.66;84.91;97793.97;102730;1292;600213;-26
2024/02/03 09:27:19;;;;;;;3.70;1.90;;;;;;;5.76;83.99;97786.59;104881;1263;62920;-26
2024/02/03 09:29:47;;;;;;;2.10;1.70;;;;;;;5.60;84.59;97777.23;104825;1271;61206;-26
2024/02/03 09:32:15;;;;;;;2.70;1.60;;;;;;;5.39;85.80;97780.95;104896;1264;71239;-26
2024/02/03 09:34:47;;;;;;;2.80;1.90;;;;;;;5.79;84.97;97799.49;104809;1271;73470;-26
2024/02/03 09:37:16;;;;;;;1.70;1.60;;;;;;;5.65;84.96;97762.20;104830;1266;73231;-25
2024/02/03 09:39:47;;;;;;;1.90;1.70;;;;;;;5.72;84.99;97781.78;105055;1269;61209;-26
2024/02/03 09:42:15;;;;;;;1.60;1.50;;;;;;;5.59;85.86;97773.66;105212;1263;61056;-26
2024/02/03 09:44:44;;;;;;;2.50;1.80;;;;;;;5.72;85.43;97765.78;105182;1267;72236;-26
2024/02/03 09:47:14;;;;;;;1.90;1.60;;;;;;;6.13;83.91;97758.47;105231;1267;73255;-26
2024/02/03 09:49:45;;;;;;;2.30;1.60;;;;;;;6.25;84.27;97780.09;105205;1263;75708;-26
2024/02/03 09:52:14;;;;;;;1.80;1.60;;;;;;;6.00;84.71;97774.70;104974;1263;61164;-26
2024/02/03 09:54:46;;;;;;;3.10;1.60;;;;;;;6.04;85.36;97771.98;104860;1263;61059;-26
2024/02/03 10:04:58;;;;;;;2.40;1.60;;;;;;;6.35;84.07;97732.38;102684;1292;599357;-25
2024/02/03 10:07:27;;;;;;;1.60;1.30;;;;;;;6.65;82.79;97727.20;104897;1265;61165;-25
2024/02/03 10:10:06;;;;;;;1.30;1.20;;;;;;;6.77;82.34;97712.55;104848;1266;61079;-28
2024/02/03 10:12:36;;;;;;;1.90;1.10;;;;;;;6.68;83.04;97743.16;104792;1271;72224;-27
2024/02/03 10:15:05;;;;;;;1.80;1.30;;;;;;;6.76;82.58;97731.48;104823;1270;75476;-28
2024/02/03 10:17:34;;;;;;;1.90;1.30;;;;;;;6.84;81.47;97724.03;105096;1260;191775;-28
2024/02/03 10:20:05;;;;;;;1.60;1.00;;;;;;;6.86;81.83;97724.75;105316;1256;61646;-27
2024/02/03 10:22:36;;;;;;;1.40;1.00;;;;;;;6.62;82.62;97713.83;105366;1256;61803;-28
2024/02/03 10:25:08;;;;;;;1.70;0.90;;;;;;;6.80;83.66;97735.77;105562;1260;73367;-28
2024/02/03 10:27:41;;;;;;;1.30;1.20;;;;;;;6.95;82.64;97721.69;105298;1256;74318;-27
2024/02/03 10:30:10;;;;;;;1.10;0.90;;;;;;;7.02;82.38;97730.10;105200;1263;71490;-27
2024/02/03 10:32:38;;;;;;;0.70;0.70;;;;;;;6.82;83.02;97704.75;105298;1260;61074;-27
2024/02/03 10:35:08;;;;;;;1.10;0.80;;;;;;;6.58;84.75;97715.73;105329;1258;62854;-28
2024/02/03 10:45:11;;;;;;;0.90;0.80;;;;;;;6.57;84.00;97705.13;102714;1296;599309;-26
2024/02/03 10:47:42;;;;;;;1.00;0.80;;;;;;;6.90;83.78;97713.48;104977;1268;62802;-28
2024/02/03 10:50:11;;;;;;;0.80;0.50;;;;;;;7.18;82.21;97708.34;104807;1272;61260;-27
2024/02/03 10:52:40;;;;;;;4.20;1.00;;;;;;;7.09;82.53;97699.45;104852;1266;71232;-27
2024/02/03 10:55:07;;;;;;;0.50;0.50;;;;;;;6.96;82.95;97710.89;104854;1267;74290;-27
2024/02/03 10:57:35;;;;;;;0.60;0.60;;;;;;;7.19;82.80;97716.65;104783;1267;72651;-28
2024/02/03 11:00:06;;;;;;;1.40;0.80;;;;;;;7.15;82.36;97701.85;104850;1269;61119;-27
2024/02/03 11:02:34;;;;;;;1.00;0.80;;;;;;;7.21;82.48;97721.88;104938;1264;61775;-28
2024/02/03 11:05:02;;;;;;;0.90;0.70;;;;;;;7.15;82.55;97712.76;104922;1262;71256;-28
2024/02/03 11:07:30;;;;;;;0.90;0.90;;;;;;;6.96;82.71;97676.63;105122;1264;76261;-27
2024/02/03 11:10:03;;;;;;;1.20;0.90;;;;;;;7.09;82.69;97692.66;104944;1265;75325;-27
2024/02/03 11:12:34;;;;;;;2.00;0.90;;;;;;;7.11;82.42;97677.32;104818;1270;61876;-28
2024/02/03 11:15:10;;;;;;;1.00;0.80;;;;;;;6.90;83.62;97708.98;105176;1258;62608;-27
2024/02/03 11:17:44;;;;;;;0.70;0.70;;;;;;;6.96;84.14;97704.54;105404;1258;73016;-27
2024/02/03 11:20:20;;;;;;;0.90;0.80;;;;;;;7.27;82.79;97718.40;105291;1266;77339;-27
2024/02/03 11:22:52;;;;;;;0.70;0.60;;;;;;;7.27;82.50;97703.87;105439;1258;72699;-28
2024/02/03 11:25:20;;;;;;;0.80;0.70;;;;;;;7.17;83.01;97694.90;105308;1257;61094;-27
2024/02/03 11:35:14;;;;;;;1.20;0.80;;;;;;;7.38;82.69;97690.15;102740;1294;600099;-27
2024/02/03 11:37:42;;;;;;;1.00;0.60;;;;;;;7.12;84.16;97724.55;104820;1269;61126;-27
2024/02/03 11:40:11;;;;;;;0.70;0.70;;;;;;;7.27;83.38;97719.29;104822;1272;62955;-27
2024/02/03 11:42:42;;;;;;;2.10;0.60;;;;;;;7.50;82.29;97700.25;104910;1272;72160;-26
2024/02/03 11:45:17;;;;;;;1.10;0.80;;;;;;;7.37;82.82;97710.93;104797;1273;76523;-26
2024/02/03 11:47:45;;;;;;;2.40;0.80;;;;;;;7.00;84.32;97666.36;104664;1269;187107;-27
2024/02/03 11:50:13;;;;;;;1.20;0.60;;;;;;;7.09;84.38;97687.82;105053;1264;61079;-27
2024/02/03 11:52:47;;;;;;;1.20;0.80;;;;;;;7.24;83.91;97678.27;104902;1260;61055;-27
2024/02/03 11:55:15;;;;;;;1.10;1.00;;;;;;;7.13;84.93;97708.41;105062;1269;74852;-26
2024/02/03 11:57:43;;;;;;;0.80;0.80;;;;;;;7.05;85.18;97683.50;105084;1266;73200;-26
2024/02/03 12:00:13;;;;;;;0.90;0.70;;;;;;;7.40;83.24;97687.02;105169;1267;72645;-27
2024/02/03 12:02:41;;;;;;;0.70;0.60;;;;;;;7.42;82.89;97685.30;104910;1279;61198;-26
2024/02/03 12:12:51;;;;;;;1.20;0.80;;;;;;;8.02;80.59;97696.46;102709;1292;599546;-26
2024/02/03 12:15:19;;;;;;;0.80;0.50;;;;;;;8.11;80.17;97707.34;105004;1266;62838;-27
2024/02/03 12:17:47;;;;;;;0.90;0.70;;;;;;;8.07;80.32;97708.06;104824;1269;61117;-27
2024/02/03 12:20:22;;;;;;;0.80;0.60;;;;;;;8.43;79.62;97679.51;104927;1269;72158;-28
2024/02/03 12:22:51;;;;;;;1.10;0.70;;;;;;;8.64;77.80;97697.44;104848;1266;73080;-27
2024/02/03 12:25:20;;;;;;;1.10;0.60;;;;;;;8.39;78.54;97694.23;104719;1268;203458;-26
2024/02/03 12:27:48;;;;;;;0.70;0.60;;;;;;;8.44;78.86;97681.66;104752;1273;61507;-28
2024/02/03 12:37:57;;;;;;;0.40;0.40;;;;;;;8.42;78.53;97700.06;102650;1292;600165;-28
2024/02/03 12:40:25;;;;;;;0.50;0.50;;;;;;;7.85;80.77;97689.69;104846;1266;61213;-28
2024/02/03 12:42:56;;;;;;;0.80;0.60;;;;;;;7.72;82.56;97713.32;104767;1266;61160;-27
2024/02/03 12:51:46;;;;;;;0.40;0.40;;;;;;;7.69;83.41;97724.84;102676;1291;600074;-25
2024/02/03 12:54:14;;;;;;;2.10;0.70;;;;;;;7.48;85.10;97725.00;104839;1266;61634;-27
2024/02/03 12:56:42;;;;;;;0.80;0.60;;;;;;;7.68;84.31;97730.09;104832;1266;61452;-28
2024/02/03 13:06:21;;;;;;;1.40;0.70;;;;;;;7.68;85.48;97742.21;102735;1295;599996;-23
2024/02/03 13:08:49;;;;;;;0.90;0.50;;;;;;;7.70;84.86;97748.56;104851;1273;61196;-23
2024/02/03 13:11:17;;;;;;;0.90;0.60;;;;;;;7.68;84.33;97740.83;104831;1271;61952;-23
2024/02/03 13:13:49;;;;;;;0.30;0.30;;;;;;;7.42;85.99;97753.83;104841;1270;70967;-26
2024/02/03 13:16:17;;;;;;;0.60;0.50;;;;;;;7.51;85.78;97755.98;104919;1264;73076;-25
2024/02/03 13:18:45;;;;;;;2.00;0.40;;;;;;;7.78;83.87;97753.73;104806;1270;75437;-26
2024/02/03 13:21:13;;;;;;;0.60;0.50;;;;;;;7.87;83.05;97749.33;104964;1260;61191;-24
2024/02/03 13:23:41;;;;;;;1.80;0.80;;;;;;;7.87;82.88;97763.52;105919;1256;61988;-25
2024/02/03 13:26:10;;;;;;;0.60;0.50;;;;;;;7.56;83.92;97751.04;105803;1256;75008;-25
2024/02/03 13:28:38;;;;;;;1.00;0.60;;;;;;;7.68;84.09;97753.94;105716;1257;73153;-25
2024/02/03 13:31:06;;;;;;;0.40;0.40;;;;;;;7.83;83.39;97781.60;105888;1256;71851;-25
2024/02/03 13:33:34;;;;;;;0.50;0.50;;;;;;;7.79;83.14;97779.24;105759;1254;61064;-25
2024/02/03 13:36:03;;;;;;;0.40;0.40;;;;;;;7.58;84.67;97767.23;105799;1256;61623;-26
2024/02/03 13:38:31;;;;;;;0.40;0.40;;;;;;;7.60;86.26;97779.34;105916;1251;74143;-26
2024/02/03 13:41:00;;;;;;;0.40;0.40;;;;;;;7.80;85.37;97777.26;105922;1257;75337;-25
2024/02/03 13:43:29;;;;;;;1.00;0.50;;;;;;;7.51;86.08;97759.42;105953;1256;72676;-25
2024/02/03 13:45:57;;;;;;;0.70;0.50;;;;;;;7.24;87.34;97766.48;105833;1251;61174;-25
2024/02/03 13:48:25;;;;;;;1.30;0.70;;;;;;;7.48;86.59;97779.53;105851;1256;61183;-25
2024/02/03 13:58:31;;;;;;;0.50;0.50;;;;;;;7.29;88.44;97761.67;102761;1292;600153;-24
2024/02/03 14:00:59;;;;;;;0.20;0.20;;;;;;;7.55;86.90;97777.02;104780;1266;61999;-24
2024/02/03 14:03:27;;;;;;;0.40;0.40;;;;;;;7.61;86.38;97772.71;104830;1264;61128;-27
2024/02/03 14:05:55;;;;;;;0.40;0.40;;;;;;;7.31;87.51;97757.21;105019;1266;73741;-27
2024/02/03 14:08:24;;;;;;;0.50;0.40;;;;;;;7.29;88.49;97770.33;104830;1266;77174;-27
2024/02/03 14:10:52;;;;;;;0.40;0.40;;;;;;;7.40;88.10;97771.77;104778;1267;73786;-27
2024/02/03 14:13:20;;;;;;;0.30;0.30;;;;;;;7.30;88.95;97762.50;104910;1262;185485;-27
2024/02/03 14:15:48;;;;;;;0.60;0.60;;;;;;;7.06;90.30;97753.50;105189;1269;62874;-27
2024/02/03 14:18:16;;;;;;;0.90;0.60;;;;;;;7.13;90.85;97765.37;104878;1269;75002;-27
2024/02/03 14:20:44;;;;;;;0.70;0.70;;;;;;;7.34;89.71;97752.30;105228;1259;77209;-27
2024/02/03 14:23:12;;;;;;;0.60;0.50;;;;;;;7.32;89.58;97750.20;105213;1259;74133;-26
2024/02/03 14:25:40;;;;;;;0.50;0.50;;;;;;;7.20;89.67;97744.70;105213;1266;62935;-26
2024/02/03 14:28:07;;;;;;;0.60;0.50;;;;;;;7.09;90.33;97728.90;105224;1260;62832;-25
2024/02/03 14:30:35;;;;;;;0.30;0.30;;;;;;;7.28;89.71;97742.23;105389;1263;75825;-26
2024/02/03 14:33:04;;;;;;;0.70;0.50;;;;;;;7.34;89.12;97747.82;105435;1263;74705;-26
2024/02/03 14:35:34;;;;;;;0.60;0.60;;;;;;;7.25;89.11;97743.90;105215;1264;75460;-24
2024/02/03 14:38:03;;;;;;;0.50;0.40;;;;;;;7.27;89.31;97743.41;105062;1260;61663;-25
2024/02/03 14:40:31;;;;;;;0.70;0.60;;;;;;;7.52;87.84;97758.29;105118;1259;61068;-25
2024/02/03 14:42:58;;;;;;;0.40;0.40;;;;;;;7.43;87.55;97754.64;105160;1265;74752;-25
2024/02/03 14:45:27;;;;;;;0.50;0.40;;;;;;;7.30;88.00;97742.15;105188;1264;74320;-26
2024/02/03 14:47:57;;;;;;;0.80;0.60;;;;;;;7.30;87.85;97718.47;105194;1259;73415;-26
2024/02/03 14:50:27;;;;;;;1.10;0.40;;;;;;;7.57;86.37;97745.74;105151;1265;61116;-27
2024/02/03 14:52:55;;;;;;;0.50;0.40;;;;;;;7.49;86.02;97759.97;105209;1265;62813;-27
2024/02/03 14:55:23;;;;;;;0.40;0.40;;;;;;;7.29;87.23;97752.61;104994;1260;74887;-27
2024/02/03 15:05:30;;;;;;;1.30;0.80;;;;;;;7.33;86.19;97759.47;102715;1292;599301;-25
2024/02/03 15:07:58;;;;;;;1.70;0.80;;;;;;;7.31;86.80;97746.52;104842;1267;64367;-26
2024/02/03 15:10:26;;;;;;;1.00;0.60;;;;;;;7.67;84.54;97742.98;104851;1263;61762;-27
2024/02/03 15:12:54;;;;;;;0.80;0.60;;;;;;;7.77;83.78;97767.30;104808;1272;74981;-28
2024/02/03 15:15:22;;;;;;;0.70;0.60;;;;;;;7.52;84.95;97754.89;104872;1264;77067;-28
2024/02/03 15:17:50;;;;;;;0.80;0.60;;;;;;;7.42;86.11;97751.80;104874;1266;75468;-28
2024/02/03 15:20:18;;;;;;;0.90;0.70;;;;;;;7.59;85.05;97745.80;105007;1263;190711;-29
2024/02/03 15:22:46;;;;;;;1.00;0.80;;;;;;;7.46;85.58;97773.16;104953;1267;61048;-28
2024/02/03 15:25:14;;;;;;;1.10;0.80;;;;;;;7.31;86.22;97749.56;104912;1263;75101;-28
2024/02/03 15:27:42;;;;;;;1.00;0.90;;;;;;;7.30;86.49;97770.58;104996;1268;74660;-28
2024/02/03 15:30:10;;;;;;;0.80;0.70;;;;;;;7.62;84.83;97764.15;105086;1264;75415;-28
2024/02/03 15:32:38;;;;;;;0.80;0.70;;;;;;;7.75;83.69;97778.34;105064;1267;61155;-28
2024/02/03 15:35:07;;;;;;;0.90;0.90;;;;;;;7.49;84.52;97776.77;104839;1263;61090;-28
2024/02/03 15:37:35;;;;;;;1.00;0.80;;;;;;;7.28;85.78;97780.77;104862;1263;75423;-28
2024/02/03 15:40:04;;;;;;;1.00;0.90;;;;;;;7.48;84.97;97770.73;105181;1263;77208;-28
2024/02/03 15:42:32;;;;;;;4.20;1.20;;;;;;;7.65;83.75;97776.50;104865;1269;75391;-27
2024/02/03 15:45:18;;;;;;;3.90;1.30;;;;;;;7.53;83.99;97781.90;104969;1269;61862;-29
2024/02/03 15:47:46;;;;;;;1.30;1.00;;;;;;;7.42;84.44;97767.48;105014;1269;61772;-28
2024/02/03 15:50:14;;;;;;;2.40;1.00;;;;;;;7.60;83.97;97791.26;105024;1263;75833;-28
2024/02/03 15:52:42;;;;;;;1.50;1.10;;;;;;;7.71;82.91;97783.06;104934;1263;74305;-27
2024/02/03 15:55:11;;;;;;;1.30;1.10;;;;;;;7.73;82.59;97779.45;104915;1265;74668;-28
2024/02/03 15:57:39;;;;;;;1.00;0.80;;;;;;;7.59;83.17;97801.95;104889;1264;61180;-27
2024/02/03 16:00:08;;;;;;;1.20;0.90;;;;;;;7.51;83.80;97797.42;105017;1267;61341;-28
2024/02/03 16:02:39;;;;;;;2.00;0.80;;;;;;;7.79;82.59;97810.69;105619;1257;75265;-28
2024/02/03 16:05:08;;;;;;;0.70;0.70;;;;;;;7.86;82.03;97799.86;105927;1256;77093;-28
2024/02/03 16:07:36;;;;;;;1.70;0.90;;;;;;;7.69;82.77;97812.96;105897;1250;73051;-27
2024/02/03 16:10:05;;;;;;;1.00;0.80;;;;;;;7.38;83.95;97802.00;105908;1250;61797;-27
2024/02/03 16:12:36;;;;;;;1.20;0.90;;;;;;;7.58;83.40;97803.00;105487;1250;60980;-25
2024/02/03 16:15:05;;;;;;;1.20;1.00;;;;;;;7.78;82.31;97812.11;105600;1250;72999;-26
2024/02/03 16:17:34;;;;;;;1.00;0.90;;;;;;;7.62;82.73;97802.30;105622;1250;74104;-27
2024/02/03 16:20:04;;;;;;;1.80;1.10;;;;;;;7.45;83.29;97803.86;105789;1256;72625;-27
2024/02/03 16:22:34;;;;;;;0.90;0.70;;;;;;;7.44;83.65;97795.98;105804;1250;63516;-27
2024/02/03 16:25:02;;;;;;;0.80;0.70;;;;;;;7.72;82.05;97797.50;105589;1259;62803;-28
2024/02/03 16:27:30;;;;;;;0.80;0.70;;;;;;;7.77;81.61;97810.14;105655;1251;74147;-27
2024/02/03 16:29:58;;;;;;;1.00;0.90;;;;;;;7.61;82.16;97812.62;105775;1256;75647;-27
2024/02/03 16:32:26;;;;;;;1.00;0.90;;;;;;;7.43;83.13;97818.88;105638;1254;72312;-27
2024/02/03 16:34:54;;;;;;;2.90;1.30;;;;;;;7.58;82.50;97817.69;105532;1254;62924;-27
2024/02/03 16:37:22;;;;;;;1.40;1.10;;;;;;;7.80;81.11;97821.96;105752;1250;61040;-29
2024/02/03 16:39:51;;;;;;;2.70;1.10;;;;;;;7.82;80.65;97822.67;105828;1251;75936;-26
2024/02/03 16:42:19;;;;;;;1.50;1.00;;;;;;;7.60;81.43;97820.77;105781;1256;74355;-27
2024/02/03 16:44:46;;;;;;;1.20;1.10;;;;;;;7.39;82.44;97820.05;105878;1256;74437;-27
2024/02/03 16:47:14;;;;;;;1.30;1.10;;;;;;;7.78;80.92;97805.95;105892;1253;61809;-27
2024/02/03 16:49:42;;;;;;;1.50;0.90;;;;;;;7.83;80.35;97818.42;105920;1251;61790;-27
2024/02/03 16:52:11;;;;;;;2.10;1.30;;;;;;;7.74;80.62;97812.95;105703;1256;75856;-27
2024/02/03 16:54:39;;;;;;;1.60;1.10;;;;;;;7.49;81.80;97803.45;105814;1250;77121;-27
2024/02/03 16:57:10;;;;;;;1.40;1.00;;;;;;;7.65;81.71;97820.73;105716;1254;75488;-27
2024/02/03 16:59:38;;;;;;;1.80;1.20;;;;;;;8.03;79.84;97828.45;105587;1257;61157;-26
2024/02/03 17:02:06;;;;;;;1.40;1.00;;;;;;;7.82;80.14;97810.72;105748;1251;62933;-26
2024/02/03 17:04:37;;;;;;;1.50;1.10;;;;;;;7.71;80.95;97822.81;105658;1259;73011;-28
2024/02/03 17:07:05;;;;;;;1.20;1.10;;;;;;;7.59;81.77;97809.98;105729;1259;77155;-27
2024/02/03 17:09:33;;;;;;;4.10;1.40;;;;;;;7.89;80.53;97821.55;105808;1250;74349;-27
2024/02/03 17:12:01;;;;;;;1.40;0.80;;;;;;;7.93;80.15;97825.12;105693;1251;62879;-27
2024/02/03 17:14:29;;;;;;;1.60;1.00;;;;;;;7.89;80.21;97811.69;105896;1250;62997;-27
2024/02/03 17:16:57;;;;;;;1.90;1.40;;;;;;;7.79;80.66;97811.55;105888;1256;76091;-27
2024/02/03 17:19:25;;;;;;;1.50;0.90;;;;;;;7.75;81.20;97807.91;105792;1256;76093;-27
2024/02/03 17:21:57;;;;;;;2.70;1.50;;;;;;;8.07;79.77;97810.59;105713;1257;75135;-27
2024/02/03 17:24:25;;;;;;;1.50;1.30;;;;;;;8.00;79.76;97813.50;105891;1250;61136;-27
2024/02/03 17:26:53;;;;;;;1.60;1.30;;;;;;;7.80;80.34;97795.94;105919;1256;62791;-27
2024/02/03 17:29:21;;;;;;;1.70;1.30;;;;;;;7.60;81.32;97805.24;105884;1256;74795;-27
2024/02/03 17:31:59;;;;;;;1.60;1.30;;;;;;;7.79;80.73;97803.27;105909;1251;75765;-29